Terminal Aerodrome Forecast
Issued by NWS

Home | Current Version | Previous Version | Graphics & Text | Print | Product List | Glossary On
Versions: 1 2 3 4 5 6 7 8 9 10 11 12 13 14 15
000
FTUS45 KGGW 260700 AAA
TAFSDY
TAF AMD
KSDY 260742Z 2608/2706 VRB03KT P6SM VCSH OVC040
      TEMPO 2608/2610 1SM -SN OVC015
     FM261200 00000KT P6SM VCFG SCT001 BKN060
     FM261700 10006KT P6SM BKN080
      AMD LTD TO CLD VIS AND WIND=

USA.gov is the U.S. government's official web portal to all federal, state and local government web resources and services.